sensor_id;sensor_type;location;lat;lon;timestamp;P1;durP1;ratioP1;P2;durP2;ratioP2
12308;SDS011;6217;48.150;17.142;2023-04-08T00:01:38;17.85;;;12.95;;
12308;SDS011;6217;48.150;17.142;2023-04-08T00:05:44;18.63;;;15.00;;
12308;SDS011;6217;48.150;17.142;2023-04-08T00:09:51;18.63;;;13.30;;
12308;SDS011;6217;48.150;17.142;2023-04-08T00:13:57;12.73;;;8.98;;
12308;SDS011;6217;48.150;17.142;2023-04-08T00:18:04;10.57;;;8.82;;
12308;SDS011;6217;48.150;17.142;2023-04-08T00:22:11;11.90;;;10.07;;
12308;SDS011;6217;48.150;17.142;2023-04-08T00:26:17;10.93;;;9.05;;
12308;SDS011;6217;48.150;17.142;2023-04-08T00:30:24;13.27;;;10.35;;
12308;SDS011;6217;48.150;17.142;2023-04-08T00:34:31;13.07;;;10.15;;
12308;SDS011;6217;48.150;17.142;2023-04-08T00:38:37;13.80;;;9.85;;
12308;SDS011;6217;48.150;17.142;2023-04-08T00:42:43;11.57;;;9.50;;
12308;SDS011;6217;48.150;17.142;2023-04-08T00:46:49;11.68;;;9.25;;
12308;SDS011;6217;48.150;17.142;2023-04-08T00:50:55;11.98;;;9.70;;
12308;SDS011;6217;48.150;17.142;2023-04-08T00:55:01;13.30;;;9.90;;
12308;SDS011;6217;48.150;17.142;2023-04-08T00:59:07;9.90;;;8.65;;
12308;SDS011;6217;48.150;17.142;2023-04-08T01:03:15;12.32;;;9.35;;
12308;SDS011;6217;48.150;17.142;2023-04-08T01:07:35;11.20;;;9.68;;
12308;SDS011;6217;48.150;17.142;2023-04-08T01:11:44;12.38;;;9.13;;
12308;SDS011;6217;48.150;17.142;2023-04-08T01:15:53;11.93;;;9.13;;
12308;SDS011;6217;48.150;17.142;2023-04-08T01:20:01;12.43;;;8.95;;
12308;SDS011;6217;48.150;17.142;2023-04-08T01:24:10;14.63;;;11.02;;
12308;SDS011;6217;48.150;17.142;2023-04-08T01:28:28;11.38;;;9.10;;
12308;SDS011;6217;48.150;17.142;2023-04-08T01:32:37;11.32;;;8.38;;
12308;SDS011;6217;48.150;17.142;2023-04-08T01:36:44;11.02;;;7.88;;
12308;SDS011;6217;48.150;17.142;2023-04-08T01:40:52;12.68;;;9.35;;
12308;SDS011;6217;48.150;17.142;2023-04-08T01:45:00;11.18;;;9.52;;
12308;SDS011;6217;48.150;17.142;2023-04-08T01:49:08;10.30;;;8.95;;
12308;SDS011;6217;48.150;17.142;2023-04-08T01:53:15;10.32;;;8.23;;
12308;SDS011;6217;48.150;17.142;2023-04-08T01:57:23;10.77;;;8.30;;
12308;SDS011;6217;48.150;17.142;2023-04-08T02:01:32;12.40;;;8.77;;
12308;SDS011;6217;48.150;17.142;2023-04-08T02:05:40;10.45;;;7.20;;
12308;SDS011;6217;48.150;17.142;2023-04-08T02:09:45;13.10;;;8.10;;
12308;SDS011;6217;48.150;17.142;2023-04-08T02:13:51;10.73;;;8.13;;
12308;SDS011;6217;48.150;17.142;2023-04-08T02:18:04;10.98;;;8.75;;
12308;SDS011;6217;48.150;17.142;2023-04-08T02:22:42;9.27;;;8.27;;
12308;SDS011;6217;48.150;17.142;2023-04-08T02:27:10;11.57;;;8.35;;
12308;SDS011;6217;48.150;17.142;2023-04-08T02:31:17;11.50;;;8.77;;
12308;SDS011;6217;48.150;17.142;2023-04-08T02:35:24;9.50;;;8.13;;
12308;SDS011;6217;48.150;17.142;2023-04-08T02:39:31;10.32;;;8.38;;
12308;SDS011;6217;48.150;17.142;2023-04-08T02:43:37;9.15;;;7.25;;
12308;SDS011;6217;48.150;17.142;2023-04-08T02:47:45;9.18;;;7.25;;
12308;SDS011;6217;48.150;17.142;2023-04-08T02:51:51;10.48;;;7.28;;
12308;SDS011;6217;48.150;17.142;2023-04-08T02:55:57;6.95;;;6.25;;
12308;SDS011;6217;48.150;17.142;2023-04-08T03:00:03;8.13;;;6.65;;
12308;SDS011;6217;48.150;17.142;2023-04-08T03:04:10;8.45;;;7.20;;
12308;SDS011;6217;48.150;17.142;2023-04-08T03:08:16;9.63;;;6.28;;
12308;SDS011;6217;48.150;17.142;2023-04-08T03:12:22;8.68;;;6.60;;
12308;SDS011;6217;48.150;17.142;2023-04-08T03:16:28;8.23;;;6.75;;
12308;SDS011;6217;48.150;17.142;2023-04-08T03:20:34;8.38;;;6.30;;
12308;SDS011;6217;48.150;17.142;2023-04-08T03:24:39;8.65;;;7.10;;
12308;SDS011;6217;48.150;17.142;2023-04-08T03:28:45;6.43;;;5.40;;
12308;SDS011;6217;48.150;17.142;2023-04-08T03:32:51;7.13;;;5.70;;
12308;SDS011;6217;48.150;17.142;2023-04-08T03:36:57;7.60;;;6.30;;
12308;SDS011;6217;48.150;17.142;2023-04-08T03:41:03;6.28;;;5.50;;
12308;SDS011;6217;48.150;17.142;2023-04-08T03:45:09;7.00;;;5.25;;
12308;SDS011;6217;48.150;17.142;2023-04-08T03:49:15;6.25;;;5.22;;
12308;SDS011;6217;48.150;17.142;2023-04-08T03:53:21;6.13;;;5.18;;
12308;SDS011;6217;48.150;17.142;2023-04-08T03:57:27;6.18;;;5.57;;
12308;SDS011;6217;48.150;17.142;2023-04-08T04:01:33;7.45;;;6.07;;
12308;SDS011;6217;48.150;17.142;2023-04-08T04:05:39;7.13;;;6.20;;
12308;SDS011;6217;48.150;17.142;2023-04-08T04:09:45;7.20;;;6.28;;
12308;SDS011;6217;48.150;17.142;2023-04-08T04:13:51;5.93;;;5.32;;
12308;SDS011;6217;48.150;17.142;2023-04-08T04:17:57;8.07;;;6.43;;
12308;SDS011;6217;48.150;17.142;2023-04-08T04:22:03;6.75;;;5.78;;
12308;SDS011;6217;48.150;17.142;2023-04-08T04:26:09;6.32;;;5.30;;
12308;SDS011;6217;48.150;17.142;2023-04-08T04:30:15;8.00;;;6.38;;
12308;SDS011;6217;48.150;17.142;2023-04-08T04:34:23;6.38;;;5.63;;
12308;SDS011;6217;48.150;17.142;2023-04-08T04:38:29;7.72;;;6.18;;
12308;SDS011;6217;48.150;17.142;2023-04-08T04:42:35;6.07;;;5.32;;
12308;SDS011;6217;48.150;17.142;2023-04-08T04:46:41;8.32;;;6.88;;
12308;SDS011;6217;48.150;17.142;2023-04-08T04:50:56;7.68;;;5.53;;
12308;SDS011;6217;48.150;17.142;2023-04-08T04:55:04;6.70;;;5.25;;
12308;SDS011;6217;48.150;17.142;2023-04-08T04:59:10;6.28;;;5.22;;
12308;SDS011;6217;48.150;17.142;2023-04-08T05:03:17;8.93;;;6.65;;
12308;SDS011;6217;48.150;17.142;2023-04-08T05:07:22;8.73;;;6.57;;
12308;SDS011;6217;48.150;17.142;2023-04-08T05:11:28;10.15;;;7.80;;
12308;SDS011;6217;48.150;17.142;2023-04-08T05:15:34;13.38;;;9.23;;
12308;SDS011;6217;48.150;17.142;2023-04-08T05:19:40;10.27;;;7.88;;
12308;SDS011;6217;48.150;17.142;2023-04-08T05:23:46;12.95;;;9.70;;
12308;SDS011;6217;48.150;17.142;2023-04-08T05:27:52;11.27;;;8.25;;
12308;SDS011;6217;48.150;17.142;2023-04-08T05:31:58;13.65;;;7.88;;
12308;SDS011;6217;48.150;17.142;2023-04-08T05:36:04;11.70;;;8.68;;
12308;SDS011;6217;48.150;17.142;2023-04-08T05:40:10;10.75;;;8.27;;
12308;SDS011;6217;48.150;17.142;2023-04-08T05:44:16;13.80;;;9.07;;
12308;SDS011;6217;48.150;17.142;2023-04-08T05:48:22;11.45;;;9.05;;
12308;SDS011;6217;48.150;17.142;2023-04-08T05:52:28;9.77;;;6.93;;
12308;SDS011;6217;48.150;17.142;2023-04-08T05:56:34;8.90;;;6.75;;
12308;SDS011;6217;48.150;17.142;2023-04-08T06:00:40;6.93;;;5.60;;
12308;SDS011;6217;48.150;17.142;2023-04-08T06:04:46;7.90;;;6.63;;
12308;SDS011;6217;48.150;17.142;2023-04-08T06:08:52;8.35;;;6.30;;
12308;SDS011;6217;48.150;17.142;2023-04-08T06:12:58;12.35;;;6.97;;
12308;SDS011;6217;48.150;17.142;2023-04-08T06:17:04;9.75;;;6.57;;
12308;SDS011;6217;48.150;17.142;2023-04-08T06:21:10;8.32;;;6.35;;
12308;SDS011;6217;48.150;17.142;2023-04-08T06:25:16;6.35;;;4.93;;
12308;SDS011;6217;48.150;17.142;2023-04-08T06:29:22;7.20;;;5.47;;
12308;SDS011;6217;48.150;17.142;2023-04-08T06:33:28;6.82;;;5.38;;
12308;SDS011;6217;48.150;17.142;2023-04-08T06:37:34;6.53;;;5.07;;
12308;SDS011;6217;48.150;17.142;2023-04-08T06:41:42;5.25;;;4.75;;
12308;SDS011;6217;48.150;17.142;2023-04-08T06:46:04;8.60;;;5.85;;
12308;SDS011;6217;48.150;17.142;2023-04-08T06:50:10;8.10;;;6.38;;
12308;SDS011;6217;48.150;17.142;2023-04-08T06:54:16;7.22;;;5.95;;
12308;SDS011;6217;48.150;17.142;2023-04-08T06:58:22;6.45;;;5.00;;
12308;SDS011;6217;48.150;17.142;2023-04-08T07:02:28;6.75;;;5.43;;
12308;SDS011;6217;48.150;17.142;2023-04-08T07:06:34;7.88;;;5.75;;
12308;SDS011;6217;48.150;17.142;2023-04-08T07:10:40;7.90;;;6.03;;
12308;SDS011;6217;48.150;17.142;2023-04-08T07:14:46;6.82;;;6.00;;
12308;SDS011;6217;48.150;17.142;2023-04-08T07:18:52;7.07;;;5.38;;
12308;SDS011;6217;48.150;17.142;2023-04-08T07:22:57;5.53;;;4.55;;
12308;SDS011;6217;48.150;17.142;2023-04-08T07:27:03;3.50;;;3.20;;
12308;SDS011;6217;48.150;17.142;2023-04-08T07:31:10;5.90;;;3.65;;
12308;SDS011;6217;48.150;17.142;2023-04-08T07:35:18;4.65;;;3.55;;
12308;SDS011;6217;48.150;17.142;2023-04-08T07:39:28;4.55;;;3.30;;
12308;SDS011;6217;48.150;17.142;2023-04-08T07:43:34;4.05;;;3.20;;
12308;SDS011;6217;48.150;17.142;2023-04-08T07:47:41;8.02;;;4.50;;
12308;SDS011;6217;48.150;17.142;2023-04-08T07:51:48;6.25;;;4.57;;
12308;SDS011;6217;48.150;17.142;2023-04-08T07:55:54;5.78;;;4.78;;
12308;SDS011;6217;48.150;17.142;2023-04-08T08:00:00;7.13;;;5.47;;
12308;SDS011;6217;48.150;17.142;2023-04-08T08:04:06;6.55;;;5.00;;
12308;SDS011;6217;48.150;17.142;2023-04-08T08:08:12;5.25;;;4.35;;
12308;SDS011;6217;48.150;17.142;2023-04-08T08:12:17;6.43;;;4.38;;
12308;SDS011;6217;48.150;17.142;2023-04-08T08:16:26;5.35;;;4.63;;
12308;SDS011;6217;48.150;17.142;2023-04-08T08:20:34;5.25;;;4.68;;
12308;SDS011;6217;48.150;17.142;2023-04-08T08:24:40;4.50;;;4.10;;
12308;SDS011;6217;48.150;17.142;2023-04-08T08:28:46;7.70;;;4.03;;
12308;SDS011;6217;48.150;17.142;2023-04-08T08:32:52;4.63;;;3.85;;
12308;SDS011;6217;48.150;17.142;2023-04-08T08:36:58;3.88;;;3.47;;
12308;SDS011;6217;48.150;17.142;2023-04-08T08:41:04;8.18;;;6.00;;
12308;SDS011;6217;48.150;17.142;2023-04-08T08:45:10;7.80;;;6.22;;
12308;SDS011;6217;48.150;17.142;2023-04-08T08:49:16;8.77;;;7.78;;
12308;SDS011;6217;48.150;17.142;2023-04-08T08:53:27;10.85;;;7.88;;
12308;SDS011;6217;48.150;17.142;2023-04-08T08:57:35;10.82;;;8.77;;
12308;SDS011;6217;48.150;17.142;2023-04-08T09:01:41;12.13;;;9.35;;
12308;SDS011;6217;48.150;17.142;2023-04-08T09:05:48;9.23;;;7.53;;
12308;SDS011;6217;48.150;17.142;2023-04-08T09:09:57;8.15;;;7.30;;
12308;SDS011;6217;48.150;17.142;2023-04-08T09:14:03;8.43;;;6.82;;
12308;SDS011;6217;48.150;17.142;2023-04-08T09:18:20;9.35;;;7.80;;
12308;SDS011;6217;48.150;17.142;2023-04-08T09:22:30;8.15;;;6.78;;
12308;SDS011;6217;48.150;17.142;2023-04-08T09:26:36;10.20;;;7.55;;
12308;SDS011;6217;48.150;17.142;2023-04-08T09:30:42;9.02;;;7.60;;
12308;SDS011;6217;48.150;17.142;2023-04-08T09:34:48;8.82;;;7.93;;
12308;SDS011;6217;48.150;17.142;2023-04-08T09:38:54;7.88;;;7.07;;
12308;SDS011;6217;48.150;17.142;2023-04-08T09:43:03;7.32;;;6.63;;
12308;SDS011;6217;48.150;17.142;2023-04-08T09:47:28;11.45;;;8.50;;
12308;SDS011;6217;48.150;17.142;2023-04-08T09:56:14;7.43;;;6.60;;
12308;SDS011;6217;48.150;17.142;2023-04-08T10:00:29;7.88;;;7.15;;
12308;SDS011;6217;48.150;17.142;2023-04-08T10:04:40;8.73;;;7.18;;
12308;SDS011;6217;48.150;17.142;2023-04-08T10:08:52;9.23;;;8.07;;
12308;SDS011;6217;48.150;17.142;2023-04-08T10:13:00;7.78;;;6.38;;
12308;SDS011;6217;48.150;17.142;2023-04-08T10:17:23;8.45;;;7.43;;
12308;SDS011;6217;48.150;17.142;2023-04-08T10:21:39;8.13;;;6.40;;
12308;SDS011;6217;48.150;17.142;2023-04-08T10:25:55;8.02;;;5.78;;
12308;SDS011;6217;48.150;17.142;2023-04-08T10:30:02;7.13;;;6.43;;
12308;SDS011;6217;48.150;17.142;2023-04-08T10:34:14;10.10;;;7.53;;
12308;SDS011;6217;48.150;17.142;2023-04-08T10:38:22;8.07;;;6.50;;
12308;SDS011;6217;48.150;17.142;2023-04-08T10:42:28;8.48;;;6.68;;
12308;SDS011;6217;48.150;17.142;2023-04-08T10:46:37;7.95;;;6.10;;
12308;SDS011;6217;48.150;17.142;2023-04-08T10:50:55;8.95;;;7.65;;
12308;SDS011;6217;48.150;17.142;2023-04-08T10:55:06;8.07;;;6.25;;
12308;SDS011;6217;48.150;17.142;2023-04-08T10:59:12;7.80;;;6.78;;
12308;SDS011;6217;48.150;17.142;2023-04-08T11:03:21;8.95;;;6.25;;
12308;SDS011;6217;48.150;17.142;2023-04-08T11:07:27;8.02;;;7.20;;
12308;SDS011;6217;48.150;17.142;2023-04-08T11:11:33;9.57;;;7.72;;
12308;SDS011;6217;48.150;17.142;2023-04-08T11:15:40;10.48;;;8.88;;
12308;SDS011;6217;48.150;17.142;2023-04-08T11:19:47;8.70;;;7.32;;
12308;SDS011;6217;48.150;17.142;2023-04-08T11:23:53;10.18;;;8.35;;
12308;SDS011;6217;48.150;17.142;2023-04-08T11:27:59;11.85;;;9.07;;
12308;SDS011;6217;48.150;17.142;2023-04-08T11:32:06;15.35;;;10.32;;
12308;SDS011;6217;48.150;17.142;2023-04-08T11:36:13;14.85;;;10.85;;
12308;SDS011;6217;48.150;17.142;2023-04-08T11:40:22;16.85;;;11.60;;
12308;SDS011;6217;48.150;17.142;2023-04-08T11:44:29;15.95;;;11.50;;
12308;SDS011;6217;48.150;17.142;2023-04-08T11:48:37;14.95;;;11.63;;
12308;SDS011;6217;48.150;17.142;2023-04-08T11:52:44;16.17;;;12.15;;
12308;SDS011;6217;48.150;17.142;2023-04-08T11:56:52;13.50;;;11.13;;
12308;SDS011;6217;48.150;17.142;2023-04-08T12:00:58;16.63;;;11.82;;
12308;SDS011;6217;48.150;17.142;2023-04-08T12:05:04;18.42;;;12.38;;
12308;SDS011;6217;48.150;17.142;2023-04-08T12:09:11;16.40;;;13.00;;
12308;SDS011;6217;48.150;17.142;2023-04-08T12:13:17;15.95;;;11.55;;
12308;SDS011;6217;48.150;17.142;2023-04-08T12:17:23;14.48;;;10.35;;
12308;SDS011;6217;48.150;17.142;2023-04-08T12:21:29;14.45;;;11.73;;
12308;SDS011;6217;48.150;17.142;2023-04-08T12:25:38;13.73;;;10.23;;
12308;SDS011;6217;48.150;17.142;2023-04-08T12:29:43;14.43;;;10.63;;
12308;SDS011;6217;48.150;17.142;2023-04-08T12:33:50;13.40;;;10.18;;
12308;SDS011;6217;48.150;17.142;2023-04-08T12:37:56;15.23;;;10.65;;
12308;SDS011;6217;48.150;17.142;2023-04-08T12:42:02;14.73;;;10.10;;
12308;SDS011;6217;48.150;17.142;2023-04-08T12:46:08;12.43;;;10.40;;
12308;SDS011;6217;48.150;17.142;2023-04-08T12:50:14;12.18;;;9.27;;
12308;SDS011;6217;48.150;17.142;2023-04-08T12:54:20;14.18;;;10.13;;
12308;SDS011;6217;48.150;17.142;2023-04-08T12:58:26;14.05;;;10.98;;
12308;SDS011;6217;48.150;17.142;2023-04-08T13:02:32;15.00;;;11.15;;
12308;SDS011;6217;48.150;17.142;2023-04-08T13:06:38;11.35;;;9.55;;
12308;SDS011;6217;48.150;17.142;2023-04-08T13:10:44;13.40;;;10.40;;
12308;SDS011;6217;48.150;17.142;2023-04-08T13:14:49;12.35;;;9.60;;
12308;SDS011;6217;48.150;17.142;2023-04-08T13:18:55;10.43;;;8.80;;
12308;SDS011;6217;48.150;17.142;2023-04-08T13:23:01;10.18;;;8.75;;
12308;SDS011;6217;48.150;17.142;2023-04-08T13:27:07;12.20;;;8.95;;
12308;SDS011;6217;48.150;17.142;2023-04-08T13:31:13;11.13;;;9.93;;
12308;SDS011;6217;48.150;17.142;2023-04-08T13:35:19;10.55;;;8.27;;
12308;SDS011;6217;48.150;17.142;2023-04-08T13:39:25;10.05;;;8.50;;
12308;SDS011;6217;48.150;17.142;2023-04-08T13:43:31;11.40;;;9.30;;
12308;SDS011;6217;48.150;17.142;2023-04-08T13:47:37;9.00;;;7.55;;
12308;SDS011;6217;48.150;17.142;2023-04-08T13:51:43;7.80;;;7.00;;
12308;SDS011;6217;48.150;17.142;2023-04-08T13:55:49;8.98;;;7.03;;
12308;SDS011;6217;48.150;17.142;2023-04-08T13:59:59;7.38;;;5.47;;
12308;SDS011;6217;48.150;17.142;2023-04-08T14:04:05;10.07;;;7.22;;
12308;SDS011;6217;48.150;17.142;2023-04-08T14:08:11;8.95;;;6.47;;
12308;SDS011;6217;48.150;17.142;2023-04-08T14:12:17;9.50;;;8.32;;
12308;SDS011;6217;48.150;17.142;2023-04-08T14:16:23;11.10;;;8.88;;
12308;SDS011;6217;48.150;17.142;2023-04-08T14:20:29;9.48;;;7.75;;
12308;SDS011;6217;48.150;17.142;2023-04-08T14:24:36;11.32;;;9.32;;
12308;SDS011;6217;48.150;17.142;2023-04-08T14:28:41;8.98;;;7.90;;
12308;SDS011;6217;48.150;17.142;2023-04-08T14:32:47;9.20;;;7.22;;
12308;SDS011;6217;48.150;17.142;2023-04-08T14:36:53;10.13;;;8.18;;
12308;SDS011;6217;48.150;17.142;2023-04-08T14:40:59;9.98;;;8.25;;
12308;SDS011;6217;48.150;17.142;2023-04-08T14:45:05;11.27;;;8.30;;
12308;SDS011;6217;48.150;17.142;2023-04-08T14:49:12;10.13;;;8.82;;
12308;SDS011;6217;48.150;17.142;2023-04-08T14:53:18;11.57;;;8.68;;
12308;SDS011;6217;48.150;17.142;2023-04-08T14:57:24;8.70;;;7.43;;
12308;SDS011;6217;48.150;17.142;2023-04-08T15:01:30;10.43;;;8.85;;
12308;SDS011;6217;48.150;17.142;2023-04-08T15:05:37;12.50;;;7.82;;
12308;SDS011;6217;48.150;17.142;2023-04-08T15:09:43;11.55;;;8.68;;
12308;SDS011;6217;48.150;17.142;2023-04-08T15:13:49;9.85;;;7.68;;
12308;SDS011;6217;48.150;17.142;2023-04-08T15:17:55;11.82;;;9.18;;
12308;SDS011;6217;48.150;17.142;2023-04-08T15:22:01;10.00;;;8.15;;
12308;SDS011;6217;48.150;17.142;2023-04-08T15:26:07;9.23;;;7.07;;
12308;SDS011;6217;48.150;17.142;2023-04-08T15:30:14;8.48;;;7.40;;
12308;SDS011;6217;48.150;17.142;2023-04-08T15:34:21;8.70;;;7.80;;
12308;SDS011;6217;48.150;17.142;2023-04-08T15:38:27;9.50;;;7.47;;
12308;SDS011;6217;48.150;17.142;2023-04-08T15:42:33;9.80;;;7.47;;
12308;SDS011;6217;48.150;17.142;2023-04-08T15:46:39;12.63;;;7.95;;
12308;SDS011;6217;48.150;17.142;2023-04-08T15:50:45;11.88;;;8.73;;
12308;SDS011;6217;48.150;17.142;2023-04-08T15:54:51;10.48;;;8.23;;
12308;SDS011;6217;48.150;17.142;2023-04-08T15:58:57;9.85;;;7.97;;
12308;SDS011;6217;48.150;17.142;2023-04-08T16:03:03;9.82;;;7.95;;
12308;SDS011;6217;48.150;17.142;2023-04-08T16:07:09;11.50;;;8.43;;
12308;SDS011;6217;48.150;17.142;2023-04-08T16:11:15;9.55;;;8.45;;
12308;SDS011;6217;48.150;17.142;2023-04-08T16:15:21;11.88;;;9.40;;
12308;SDS011;6217;48.150;17.142;2023-04-08T16:19:27;11.40;;;8.20;;
12308;SDS011;6217;48.150;17.142;2023-04-08T16:23:33;11.70;;;10.05;;
12308;SDS011;6217;48.150;17.142;2023-04-08T16:27:43;12.02;;;9.55;;
12308;SDS011;6217;48.150;17.142;2023-04-08T16:31:49;14.55;;;10.27;;
12308;SDS011;6217;48.150;17.142;2023-04-08T16:35:55;13.23;;;9.35;;
12308;SDS011;6217;48.150;17.142;2023-04-08T16:40:02;13.93;;;10.88;;
12308;SDS011;6217;48.150;17.142;2023-04-08T16:44:08;15.25;;;11.13;;
12308;SDS011;6217;48.150;17.142;2023-04-08T16:48:14;12.77;;;10.15;;
12308;SDS011;6217;48.150;17.142;2023-04-08T16:52:20;12.75;;;10.02;;
12308;SDS011;6217;48.150;17.142;2023-04-08T16:56:27;16.35;;;12.20;;
12308;SDS011;6217;48.150;17.142;2023-04-08T17:00:33;13.77;;;10.82;;
12308;SDS011;6217;48.150;17.142;2023-04-08T17:04:39;16.42;;;12.00;;
12308;SDS011;6217;48.150;17.142;2023-04-08T17:08:45;13.50;;;10.30;;
12308;SDS011;6217;48.150;17.142;2023-04-08T17:12:51;13.35;;;10.00;;
12308;SDS011;6217;48.150;17.142;2023-04-08T17:16:57;13.85;;;9.40;;
12308;SDS011;6217;48.150;17.142;2023-04-08T17:21:03;13.30;;;10.05;;
12308;SDS011;6217;48.150;17.142;2023-04-08T17:25:10;11.55;;;9.73;;
12308;SDS011;6217;48.150;17.142;2023-04-08T17:29:16;13.10;;;9.73;;
12308;SDS011;6217;48.150;17.142;2023-04-08T17:33:22;12.93;;;10.77;;
12308;SDS011;6217;48.150;17.142;2023-04-08T17:37:28;12.10;;;9.10;;
12308;SDS011;6217;48.150;17.142;2023-04-08T17:41:34;13.77;;;9.57;;
12308;SDS011;6217;48.150;17.142;2023-04-08T17:45:41;12.73;;;9.70;;
12308;SDS011;6217;48.150;17.142;2023-04-08T17:49:47;14.38;;;10.18;;
12308;SDS011;6217;48.150;17.142;2023-04-08T17:53:52;12.38;;;9.98;;
12308;SDS011;6217;48.150;17.142;2023-04-08T17:57:59;17.92;;;11.25;;
12308;SDS011;6217;48.150;17.142;2023-04-08T18:02:05;14.18;;;10.50;;
12308;SDS011;6217;48.150;17.142;2023-04-08T18:06:11;13.32;;;10.52;;
12308;SDS011;6217;48.150;17.142;2023-04-08T18:10:16;13.15;;;10.27;;
12308;SDS011;6217;48.150;17.142;2023-04-08T18:14:22;12.50;;;9.70;;
12308;SDS011;6217;48.150;17.142;2023-04-08T18:18:28;11.98;;;9.57;;
12308;SDS011;6217;48.150;17.142;2023-04-08T18:22:34;11.45;;;10.25;;
12308;SDS011;6217;48.150;17.142;2023-04-08T18:26:40;12.40;;;9.88;;
12308;SDS011;6217;48.150;17.142;2023-04-08T18:30:49;16.08;;;11.52;;
12308;SDS011;6217;48.150;17.142;2023-04-08T18:34:56;14.05;;;10.65;;
12308;SDS011;6217;48.150;17.142;2023-04-08T18:39:02;13.50;;;9.88;;
12308;SDS011;6217;48.150;17.142;2023-04-08T18:43:09;11.15;;;9.38;;
12308;SDS011;6217;48.150;17.142;2023-04-08T18:47:16;13.77;;;9.93;;
12308;SDS011;6217;48.150;17.142;2023-04-08T18:51:22;13.63;;;10.57;;
12308;SDS011;6217;48.150;17.142;2023-04-08T18:55:28;12.30;;;10.00;;
12308;SDS011;6217;48.150;17.142;2023-04-08T18:59:39;15.75;;;10.38;;
12308;SDS011;6217;48.150;17.142;2023-04-08T19:03:46;15.05;;;10.48;;
12308;SDS011;6217;48.150;17.142;2023-04-08T19:07:51;17.80;;;10.52;;
12308;SDS011;6217;48.150;17.142;2023-04-08T19:11:57;13.15;;;9.98;;
12308;SDS011;6217;48.150;17.142;2023-04-08T19:16:03;15.27;;;10.23;;
12308;SDS011;6217;48.150;17.142;2023-04-08T19:20:10;15.80;;;10.60;;
12308;SDS011;6217;48.150;17.142;2023-04-08T19:24:17;13.50;;;10.40;;
12308;SDS011;6217;48.150;17.142;2023-04-08T19:28:24;10.50;;;9.15;;
12308;SDS011;6217;48.150;17.142;2023-04-08T19:32:32;10.60;;;9.25;;
12308;SDS011;6217;48.150;17.142;2023-04-08T19:40:48;10.70;;;7.88;;
12308;SDS011;6217;48.150;17.142;2023-04-08T19:44:54;10.15;;;8.38;;
12308;SDS011;6217;48.150;17.142;2023-04-08T19:49:00;12.82;;;8.63;;
12308;SDS011;6217;48.150;17.142;2023-04-08T19:53:06;7.80;;;6.82;;
12308;SDS011;6217;48.150;17.142;2023-04-08T19:57:12;7.18;;;6.32;;
12308;SDS011;6217;48.150;17.142;2023-04-08T20:01:18;9.13;;;6.90;;
12308;SDS011;6217;48.150;17.142;2023-04-08T20:05:24;6.82;;;5.22;;
12308;SDS011;6217;48.150;17.142;2023-04-08T20:09:30;5.28;;;3.95;;
12308;SDS011;6217;48.150;17.142;2023-04-08T20:13:36;5.38;;;4.15;;
12308;SDS011;6217;48.150;17.142;2023-04-08T20:17:44;5.63;;;4.57;;
12308;SDS011;6217;48.150;17.142;2023-04-08T20:21:50;4.25;;;3.58;;
12308;SDS011;6217;48.150;17.142;2023-04-08T20:25:56;3.95;;;2.65;;
12308;SDS011;6217;48.150;17.142;2023-04-08T20:30:02;3.00;;;2.42;;
12308;SDS011;6217;48.150;17.142;2023-04-08T20:34:09;3.20;;;2.90;;
12308;SDS011;6217;48.150;17.142;2023-04-08T20:38:15;3.42;;;2.35;;
12308;SDS011;6217;48.150;17.142;2023-04-08T20:42:21;3.58;;;3.00;;
12308;SDS011;6217;48.150;17.142;2023-04-08T20:46:27;3.35;;;2.25;;
12308;SDS011;6217;48.150;17.142;2023-04-08T20:50:33;3.83;;;2.88;;
12308;SDS011;6217;48.150;17.142;2023-04-08T20:54:39;2.72;;;2.30;;
12308;SDS011;6217;48.150;17.142;2023-04-08T20:58:45;2.92;;;2.25;;
12308;SDS011;6217;48.150;17.142;2023-04-08T21:02:51;4.45;;;3.35;;
12308;SDS011;6217;48.150;17.142;2023-04-08T21:06:57;5.20;;;3.50;;
12308;SDS011;6217;48.150;17.142;2023-04-08T21:11:03;4.38;;;2.90;;
12308;SDS011;6217;48.150;17.142;2023-04-08T21:15:09;3.90;;;3.15;;
12308;SDS011;6217;48.150;17.142;2023-04-08T21:19:15;3.47;;;2.88;;
12308;SDS011;6217;48.150;17.142;2023-04-08T21:23:21;4.70;;;2.42;;
12308;SDS011;6217;48.150;17.142;2023-04-08T21:27:27;6.70;;;4.82;;
12308;SDS011;6217;48.150;17.142;2023-04-08T21:31:33;4.57;;;3.42;;
12308;SDS011;6217;48.150;17.142;2023-04-08T21:35:39;5.05;;;4.15;;
12308;SDS011;6217;48.150;17.142;2023-04-08T21:39:45;5.85;;;4.18;;
12308;SDS011;6217;48.150;17.142;2023-04-08T21:43:51;6.05;;;5.45;;
12308;SDS011;6217;48.150;17.142;2023-04-08T21:47:57;6.18;;;4.38;;
12308;SDS011;6217;48.150;17.142;2023-04-08T21:52:03;7.68;;;5.45;;
12308;SDS011;6217;48.150;17.142;2023-04-08T21:56:10;8.88;;;6.88;;
12308;SDS011;6217;48.150;17.142;2023-04-08T22:00:17;12.77;;;7.75;;
12308;SDS011;6217;48.150;17.142;2023-04-08T22:04:37;11.25;;;8.30;;
12308;SDS011;6217;48.150;17.142;2023-04-08T22:08:43;12.77;;;10.57;;
12308;SDS011;6217;48.150;17.142;2023-04-08T22:12:49;11.85;;;9.75;;
12308;SDS011;6217;48.150;17.142;2023-04-08T22:16:55;13.27;;;10.25;;
12308;SDS011;6217;48.150;17.142;2023-04-08T22:21:01;14.20;;;11.00;;
12308;SDS011;6217;48.150;17.142;2023-04-08T22:25:07;14.75;;;10.95;;
12308;SDS011;6217;48.150;17.142;2023-04-08T22:29:14;16.15;;;12.00;;
12308;SDS011;6217;48.150;17.142;2023-04-08T22:33:20;15.90;;;10.27;;
12308;SDS011;6217;48.150;17.142;2023-04-08T22:37:26;16.08;;;12.35;;
12308;SDS011;6217;48.150;17.142;2023-04-08T22:41:32;16.70;;;12.38;;
12308;SDS011;6217;48.150;17.142;2023-04-08T22:45:38;17.55;;;12.55;;
12308;SDS011;6217;48.150;17.142;2023-04-08T22:49:44;18.08;;;13.77;;
12308;SDS011;6217;48.150;17.142;2023-04-08T22:53:50;17.30;;;13.80;;
12308;SDS011;6217;48.150;17.142;2023-04-08T22:57:56;18.10;;;13.45;;
12308;SDS011;6217;48.150;17.142;2023-04-08T23:02:02;16.35;;;13.48;;
12308;SDS011;6217;48.150;17.142;2023-04-08T23:06:08;15.05;;;12.30;;
12308;SDS011;6217;48.150;17.142;2023-04-08T23:10:14;19.40;;;12.73;;
12308;SDS011;6217;48.150;17.142;2023-04-08T23:14:20;16.88;;;13.38;;
12308;SDS011;6217;48.150;17.142;2023-04-08T23:18:26;16.27;;;13.35;;
12308;SDS011;6217;48.150;17.142;2023-04-08T23:22:32;16.80;;;12.45;;
12308;SDS011;6217;48.150;17.142;2023-04-08T23:26:38;20.65;;;14.98;;
12308;SDS011;6217;48.150;17.142;2023-04-08T23:30:44;16.65;;;12.65;;
12308;SDS011;6217;48.150;17.142;2023-04-08T23:34:50;18.40;;;13.40;;
12308;SDS011;6217;48.150;17.142;2023-04-08T23:38:56;16.63;;;13.27;;
12308;SDS011;6217;48.150;17.142;2023-04-08T23:43:02;17.63;;;13.60;;
12308;SDS011;6217;48.150;17.142;2023-04-08T23:47:08;17.35;;;13.60;;
12308;SDS011;6217;48.150;17.142;2023-04-08T23:51:14;17.02;;;12.90;;
12308;SDS011;6217;48.150;17.142;2023-04-08T23:55:20;18.45;;;13.40;;
12308;SDS011;6217;48.150;17.142;2023-04-08T23:59:26;18.80;;;13.70;;
